Dripping Springs' Hourly Summary for Tuesday, April 18, 2017
Hour Temp
(f)
RH
(%)
Solar Rad.
(MJ/m2)
Rainfall
(in)
Wind
(mph)
4/18/2017 12:00 AM 61 99 0 0 0.93
4/18/2017 1:00 AM 59 100 0 0 0.74
4/18/2017 2:00 AM 58 100 0 0 0.34
4/18/2017 3:00 AM 56 100 0 0 0.07
4/18/2017 4:00 AM 55 100 0 0 0.24
4/18/2017 5:00 AM 54 100 0 0 0.32
4/18/2017 6:00 AM 53 100 0 0 0.12
4/18/2017 7:00 AM 53 100 0 0 0.21
4/18/2017 8:00 AM 53 100 0.06 0 0.23
4/18/2017 9:00 AM 59 100 0.37 0 2.84
4/18/2017 10:00 AM 62 100 0.94 0 3.56
4/18/2017 11:00 AM 66 99 1.39 0 4.47
4/18/2017 12:00 PM 69 87 1.98 0 5.32
4/18/2017 1:00 PM 72 74 2.48 0 5.72
4/18/2017 2:00 PM 73 71 2.93 0 5.41
4/18/2017 3:00 PM 74 64 2.54 0 4.86
4/18/2017 4:00 PM 75 57 2.36 0 4.44
4/18/2017 5:00 PM 76 52 1.21 0 4.59
4/18/2017 6:00 PM 76 54 1 0 4.85
4/18/2017 7:00 PM 75 61 0.65 0 5.66
4/18/2017 8:00 PM 71 80 0.08 0 4.54
4/18/2017 9:00 PM 68 86 0 0 2.39
4/18/2017 10:00 PM 66 99 0 0 2.16
4/18/2017 11:00 PM 65 100 0 0 2.91
Data Summary 64 86 17.99 0.00 2.79